createdAt,value
2017-08-23T00:06:17.092Z,78.53
2017-08-23T00:16:40.806Z,78.83
2017-08-23T00:27:04.411Z,78.81
2017-08-23T00:37:27.165Z,77.31
2017-08-23T00:47:49.671Z,78.82
2017-08-23T00:58:13.339Z,76.19
2017-08-23T01:08:35.151Z,76.56
2017-08-23T01:18:57.123Z,76.72
2017-08-23T01:29:19.819Z,76.27
2017-08-23T01:45:02.620Z,76.13
2017-08-23T01:55:25.403Z,77.16
2017-08-23T02:05:49.116Z,76.35
2017-08-23T02:16:10.898Z,76.55
2017-08-23T02:26:33.912Z,75.10
2017-08-23T02:36:57.181Z,73.51
2017-08-23T02:47:21.160Z,74.91
2017-08-23T02:57:43.665Z,75.01
2017-08-23T03:08:07.435Z,74.48
2017-08-23T03:18:30.327Z,74.14
2017-08-23T03:28:53.065Z,73.01
2017-08-23T03:44:37.127Z,72.78
2017-08-23T03:55:01.202Z,75.25
2017-08-23T04:05:24.782Z,75.08
2017-08-23T04:10:30.675Z,77.78
2017-08-23T04:20:57.326Z,78.60
2017-08-23T04:26:03.123Z,79.56
2017-08-23T04:36:26.445Z,76.39
2017-08-23T04:46:51.371Z,74.79
2017-08-23T04:57:18.224Z,74.33
2017-08-23T05:07:42.546Z,73.63
2017-08-23T05:18:04.339Z,76.37
2017-08-23T05:28:31.602Z,76.93
2017-08-23T05:38:53.952Z,77.04
2017-08-23T05:49:16.414Z,76.91
2017-08-23T05:59:38.917Z,76.88
2017-08-23T06:10:01.511Z,76.80
2017-08-23T06:20:24.203Z,75.96
2017-08-23T06:30:46.728Z,74.80
2017-08-23T06:41:09.318Z,73.36
2017-08-23T06:51:31.998Z,73.07
2017-08-23T07:01:54.543Z,71.09
2017-08-23T07:12:17.347Z,69.73
2017-08-23T07:17:24.163Z,71.24
2017-08-23T07:27:48.169Z,67.46
2017-08-23T07:38:09.474Z,70.53
2017-08-23T07:48:32.255Z,69.79
2017-08-23T07:58:54.210Z,67.34
2017-08-23T08:09:16.872Z,65.10
2017-08-23T08:19:39.356Z,66.27
2017-08-23T08:30:06.062Z,65.06
2017-08-23T08:40:28.476Z,66.01
2017-08-23T08:50:50.239Z,65.28
2017-08-23T09:01:12.798Z,67.42
2017-08-23T09:11:32.871Z,66.79
2017-08-23T09:21:54.723Z,65.92
2017-08-23T09:32:17.325Z,65.37
2017-08-23T09:47:57.082Z,61.80
2017-08-23T09:58:16.935Z,61.59
2017-08-23T10:08:39.430Z,57.28
2017-08-23T10:19:02.048Z,58.82
2017-08-23T10:29:25.390Z,59.43
2017-08-23T10:45:04.294Z,55.34
2017-08-23T10:55:26.877Z,53.95
2017-08-23T11:05:50.357Z,55.22
2017-08-23T11:16:12.140Z,54.92
2017-08-23T11:26:32.616Z,55.75
2017-08-23T11:36:55.238Z,52.80
2017-08-23T11:47:21.058Z,58.30
2017-08-23T11:57:43.558Z,53.71
2017-08-23T12:08:06.965Z,55.68
2017-08-23T12:18:31.456Z,53.11
2017-08-23T12:28:53.214Z,47.41
